TLSO2: Arkansas River, Tulsa, OK

                                SHEF ID:       TLSO2     Arkansas River at Tulsa, OK
STATION TYPE: Stream Gauge
Regulating: Stage = 15.00, Flow = 96489

PRECIP STAGE STAGE(2) RIV-FLOW WTR-TEMP DIS-OXY BAT-LOAD
in ft ft cfs F mg/l volt
Ccp-Rev Ccp-Rev Ccp-Rev Ccp-Rev Ccp-Rev Ccp-Rev Ccp-Rev
(America/Chicago)
03/22 00:00 0.00 4.60 ---- 5169 63.81 12.75 ----
03/22 01:00 0.00 4.56 ---- 4969 65.37 11.58 ----
03/22 02:00 0.00 4.54 ---- 4871 64.24 10.50 ----
03/22 03:00 0.00 4.52 ---- 4774 62.40 9.68 ----
03/22 04:00 0.00 4.52 ---- 4774 61.09 9.15 ----
03/22 05:00 0.00 4.52 ---- 4774 60.49 8.89 ----
03/22 06:00 0.00 4.52 ---- 4774 60.21 8.77 ----
03/22 07:00 0.00 4.48 ---- 4583 59.90 8.59 ----
03/22 08:00 0.00 4.49 ---- 4631 59.40 8.40 ----
03/22 09:00 0.00 4.45 ---- 4443 59.58 8.48 ----
03/22 10:00 0.00 4.47 ---- 4536 60.15 8.77 ----
03/22 11:00 0.00 4.50 ---- 4678 60.10 9.19 ----
03/22 12:00 0.00 4.46 ---- 4490 60.75 10.06 ----
03/22 13:00 0.00 4.43 ---- 4351 61.74 10.04 ----
03/22 14:00 0.00 4.39 ---- 4170 62.58 11.54 ----
03/22 15:00 0.00 4.34 ---- 3951 63.61 12.08 ----
03/22 16:00 0.00 4.30 ---- 3780 63.37 11.96 ----
03/22 17:00 0.00 4.23 ---- 3491 64.13 12.68 ----
03/22 18:00 0.00 4.15 ---- 3177 63.86 12.64 ----
03/22 19:00 0.00 4.09 ---- 2953 64.45 12.73 ----
03/22 20:00 0.00 4.07 ---- 2880 64.96 12.91 ----
03/22 21:00 0.00 4.16 ---- 3216 65.39 12.86 ----
03/22 22:00 0.00 4.17 ---- 3254 64.98 12.12 ----
03/22 23:00 0.00 4.21 ---- 3411 64.63 11.96 ----
Data processed at Mon 23Mar2026 04:48 GMT

NOTICE: If you are parsing this page

Please convert to using our Data API. Starting early 2026 we will be migrating to: https://water.usace.army.mil with modern pages rendered in JavaScript. When this migration completes you will no longer be able to scrape this page! CWMSDataAPI (CDA)

Timeseries IDs (TSIDs)

TSIDs used from left to right in the data table
TULA.Precip-Inc.Total.1Hour.1Hour.Ccp-Rev
TULA.Stage.Inst.1Hour.0.Ccp-Rev
TULA.Stage-Alt.Inst.1Hour.0.Ccp-Rev
TULA.Flow.Inst.1Hour.0.Ccp-Rev
TULA.Temp-Water.Inst.1Hour.0.Ccp-Rev
TULA.Conc-DO.Inst.1Hour.0.Ccp-Rev
TULA.Volt-Battery Load.Inst.1Hour.0.Ccp-Rev

                            

All information presented herein is the property of the government of the United States of America and may be revised or deleted at any time without prior notice. Dissemination of this information without the expressed written consent of the Public Affairs Office, Tulsa District U.S. Army Corps of Engineers is strictly prohibited. These data are gathered electronically and, as presented, have NOT undergone any form of quality control. These data are NOT guaranteed to be valid or correct.